CheckWX is a tool to help pilots better visualize weather data.  It is not intended as a substitute for an official pre-flight weather briefing.

04:16:20 UTC

KLOM METAR
Wings Field Airport
Philadelphia, Pennsylvania, USA
Current

21 mins ago

KLOM 270355Z AUTO 00000KT 10SM CLR 21/20 A3007 RMK AO2 T02110197
Observed
Jun-27 @ 03:55 UTC
Visibility
10 SM
Flight Rules
VFR
Cloud Levels
  • Clear skies
Temperature
21°C / 70°F
Dewpoint
20°C / 68°F
Humidity
94%
Altimeter
30.07" Hg
Pressure
1018.32 hPa
Previous

41 mins ago

KLOM 270335Z AUTO 00000KT 10SM CLR 21/20 A3007 RMK AO2 T02130197
Observed
Jun-27 @ 03:35 UTC
Visibility
10 SM
Flight Rules
VFR
Cloud Levels
  • Clear skies
Temperature
21°C / 70°F
Dewpoint
20°C / 68°F
Humidity
94%
Altimeter
30.07" Hg
Pressure
1018.32 hPa
Previous

1 hour ago

KLOM 270315Z AUTO 00000KT 10SM CLR 22/20 A3007 RMK AO2 T02160196
Observed
Jun-27 @ 03:15 UTC
Visibility
10 SM
Flight Rules
VFR
Cloud Levels
  • Clear skies
Temperature
22°C / 72°F
Dewpoint
20°C / 68°F
Humidity
88%
Altimeter
30.07" Hg
Pressure
1018.32 hPa